sensor_id;sensor_type;location;lat;lon;timestamp;pressure;altitude;pressure_sealevel;temperature;humidity
58662;BME280;44432;49.786;22.760;2023-05-09T00:02:06;100514.52;;;2.21;82.90
58662;BME280;44432;49.786;22.760;2023-05-09T00:04:37;100515.15;;;2.20;83.17
58662;BME280;44432;49.786;22.760;2023-05-09T00:07:08;100516.69;;;2.16;82.96
58662;BME280;44432;49.786;22.760;2023-05-09T00:09:39;100517.98;;;2.13;83.16
58662;BME280;44432;49.786;22.760;2023-05-09T00:12:10;100514.21;;;2.11;83.50
58662;BME280;44432;49.786;22.760;2023-05-09T00:14:40;100511.17;;;2.08;83.11
58662;BME280;44432;49.786;22.760;2023-05-09T00:17:13;100508.66;;;2.05;83.17
58662;BME280;44432;49.786;22.760;2023-05-09T00:19:44;100505.25;;;2.02;82.98
58662;BME280;44432;49.786;22.760;2023-05-09T00:22:16;100508.39;;;2.00;83.27
58662;BME280;44432;49.786;22.760;2023-05-09T00:24:47;100507.55;;;1.97;83.23
58662;BME280;44432;49.786;22.760;2023-05-09T00:27:17;100510.05;;;1.94;83.11
58662;BME280;44432;49.786;22.760;2023-05-09T00:29:48;100506.55;;;1.90;83.21
58662;BME280;44432;49.786;22.760;2023-05-09T00:32:18;100505.92;;;1.87;83.18
58662;BME280;44432;49.786;22.760;2023-05-09T00:34:49;100507.62;;;1.84;83.20
58662;BME280;44432;49.786;22.760;2023-05-09T00:37:19;100505.45;;;1.81;83.34
58662;BME280;44432;49.786;22.760;2023-05-09T00:39:50;100503.64;;;1.78;83.54
58662;BME280;44432;49.786;22.760;2023-05-09T00:42:21;100502.66;;;1.77;83.78
58662;BME280;44432;49.786;22.760;2023-05-09T00:44:51;100505.57;;;1.77;84.07
58662;BME280;44432;49.786;22.760;2023-05-09T00:47:23;100503.15;;;1.79;83.98
58662;BME280;44432;49.786;22.760;2023-05-09T00:49:54;100499.03;;;1.79;83.89
58662;BME280;44432;49.786;22.760;2023-05-09T00:52:26;100501.95;;;1.81;84.41
58662;BME280;44432;49.786;22.760;2023-05-09T00:54:56;100498.06;;;1.82;84.42
58662;BME280;44432;49.786;22.760;2023-05-09T00:57:27;100499.33;;;1.81;84.17
58662;BME280;44432;49.786;22.760;2023-05-09T00:59:58;100499.46;;;1.80;84.13
58662;BME280;44432;49.786;22.760;2023-05-09T01:02:29;100502.12;;;1.77;84.14
58662;BME280;44432;49.786;22.760;2023-05-09T01:05:00;100501.11;;;1.74;84.31
58662;BME280;44432;49.786;22.760;2023-05-09T01:07:40;100501.98;;;1.72;84.38
58662;BME280;44432;49.786;22.760;2023-05-09T01:10:19;100507.59;;;1.72;84.61
58662;BME280;44432;49.786;22.760;2023-05-09T01:12:57;100509.98;;;1.70;84.50
58662;BME280;44432;49.786;22.760;2023-05-09T01:15:35;100512.05;;;1.68;84.61
58662;BME280;44432;49.786;22.760;2023-05-09T01:18:14;100517.83;;;1.68;84.66
58662;BME280;44432;49.786;22.760;2023-05-09T01:20:49;100517.84;;;1.65;84.63
58662;BME280;44432;49.786;22.760;2023-05-09T01:23:45;100515.59;;;1.62;84.89
58662;BME280;44432;49.786;22.760;2023-05-09T01:26:28;100518.90;;;1.60;84.74
58662;BME280;44432;49.786;22.760;2023-05-09T01:29:37;100512.58;;;1.57;84.78
58662;BME280;44432;49.786;22.760;2023-05-09T01:32:12;100513.10;;;1.55;84.99
58662;BME280;44432;49.786;22.760;2023-05-09T01:34:46;100514.86;;;1.52;84.77
58662;BME280;44432;49.786;22.760;2023-05-09T01:37:20;100514.93;;;1.52;84.90
58662;BME280;44432;49.786;22.760;2023-05-09T01:39:54;100512.64;;;1.52;85.13
58662;BME280;44432;49.786;22.760;2023-05-09T01:42:26;100510.63;;;1.51;84.93
58662;BME280;44432;49.786;22.760;2023-05-09T01:44:59;100510.38;;;1.48;84.95
58662;BME280;44432;49.786;22.760;2023-05-09T01:47:30;100509.38;;;1.45;84.82
58662;BME280;44432;49.786;22.760;2023-05-09T01:50:02;100508.06;;;1.42;85.10
58662;BME280;44432;49.786;22.760;2023-05-09T01:52:34;100507.21;;;1.40;85.07
58662;BME280;44432;49.786;22.760;2023-05-09T01:55:07;100503.05;;;1.38;84.94
58662;BME280;44432;49.786;22.760;2023-05-09T01:57:39;100506.83;;;1.36;84.84
58662;BME280;44432;49.786;22.760;2023-05-09T02:00:11;100499.59;;;1.34;84.86
58662;BME280;44432;49.786;22.760;2023-05-09T02:02:43;100498.97;;;1.30;84.94
58662;BME280;44432;49.786;22.760;2023-05-09T02:05:14;100502.50;;;1.27;85.01
58662;BME280;44432;49.786;22.760;2023-05-09T02:07:47;100501.41;;;1.25;85.06
58662;BME280;44432;49.786;22.760;2023-05-09T02:10:20;100494.36;;;1.23;84.87
58662;BME280;44432;49.786;22.760;2023-05-09T02:12:54;100491.27;;;1.18;84.79
58662;BME280;44432;49.786;22.760;2023-05-09T02:15:25;100491.11;;;1.16;85.12
58662;BME280;44432;49.786;22.760;2023-05-09T02:17:56;100489.36;;;1.14;85.11
58662;BME280;44432;49.786;22.760;2023-05-09T02:20:26;100488.98;;;1.12;85.05
58662;BME280;44432;49.786;22.760;2023-05-09T02:22:57;100491.00;;;1.11;85.22
58662;BME280;44432;49.786;22.760;2023-05-09T02:25:28;100492.64;;;1.10;85.25
58662;BME280;44432;49.786;22.760;2023-05-09T02:27:59;100484.23;;;1.07;85.11
58662;BME280;44432;49.786;22.760;2023-05-09T02:30:34;100489.27;;;1.07;85.20
58662;BME280;44432;49.786;22.760;2023-05-09T02:33:07;100486.23;;;1.04;85.00
58662;BME280;44432;49.786;22.760;2023-05-09T02:35:41;100487.20;;;1.00;85.07
58662;BME280;44432;49.786;22.760;2023-05-09T02:38:11;100490.30;;;0.98;85.10
58662;BME280;44432;49.786;22.760;2023-05-09T02:40:42;100485.86;;;0.95;85.30
58662;BME280;44432;49.786;22.760;2023-05-09T02:43:13;100490.19;;;0.93;85.29
58662;BME280;44432;49.786;22.760;2023-05-09T02:45:44;100490.10;;;0.92;85.35
58662;BME280;44432;49.786;22.760;2023-05-09T02:48:14;100489.19;;;0.90;85.48
58662;BME280;44432;49.786;22.760;2023-05-09T02:50:45;100491.14;;;0.90;85.54
58662;BME280;44432;49.786;22.760;2023-05-09T02:53:16;100491.58;;;0.89;85.29
58662;BME280;44432;49.786;22.760;2023-05-09T02:55:46;100488.39;;;0.85;85.51
58662;BME280;44432;49.786;22.760;2023-05-09T02:58:17;100493.28;;;0.87;85.51
58662;BME280;44432;49.786;22.760;2023-05-09T03:00:48;100495.36;;;0.87;85.44
58662;BME280;44432;49.786;22.760;2023-05-09T03:03:19;100492.71;;;0.85;85.37
58662;BME280;44432;49.786;22.760;2023-05-09T03:05:50;100492.60;;;0.85;85.51
58662;BME280;44432;49.786;22.760;2023-05-09T03:08:20;100497.04;;;0.83;85.41
58662;BME280;44432;49.786;22.760;2023-05-09T03:10:51;100496.70;;;0.83;85.54
58662;BME280;44432;49.786;22.760;2023-05-09T03:13:21;100499.02;;;0.82;85.45
58662;BME280;44432;49.786;22.760;2023-05-09T03:15:52;100498.89;;;0.79;85.39
58662;BME280;44432;49.786;22.760;2023-05-09T03:18:23;100500.95;;;0.78;85.44
58662;BME280;44432;49.786;22.760;2023-05-09T03:20:53;100500.00;;;0.77;85.44
58662;BME280;44432;49.786;22.760;2023-05-09T03:23:24;100502.73;;;0.75;85.30
58662;BME280;44432;49.786;22.760;2023-05-09T03:25:55;100503.98;;;0.74;85.45
58662;BME280;44432;49.786;22.760;2023-05-09T03:28:26;100507.98;;;0.74;85.45
58662;BME280;44432;49.786;22.760;2023-05-09T03:30:57;100510.64;;;0.73;85.42
58662;BME280;44432;49.786;22.760;2023-05-09T03:33:28;100514.23;;;0.74;85.46
58662;BME280;44432;49.786;22.760;2023-05-09T03:35:59;100513.73;;;0.76;85.50
58662;BME280;44432;49.786;22.760;2023-05-09T03:38:30;100511.70;;;0.78;85.61
58662;BME280;44432;49.786;22.760;2023-05-09T03:41:00;100509.88;;;0.79;85.45
58662;BME280;44432;49.786;22.760;2023-05-09T03:43:31;100511.24;;;0.81;85.51
58662;BME280;44432;49.786;22.760;2023-05-09T03:46:02;100512.50;;;0.83;85.43
58662;BME280;44432;49.786;22.760;2023-05-09T03:48:32;100511.73;;;0.83;85.43
58662;BME280;44432;49.786;22.760;2023-05-09T03:51:03;100516.95;;;0.86;85.54
58662;BME280;44432;49.786;22.760;2023-05-09T03:53:33;100513.86;;;0.90;85.79
58662;BME280;44432;49.786;22.760;2023-05-09T03:56:04;100514.21;;;0.94;85.77
58662;BME280;44432;49.786;22.760;2023-05-09T03:58:35;100511.48;;;0.95;85.71
58662;BME280;44432;49.786;22.760;2023-05-09T04:01:06;100519.56;;;1.01;85.69
58662;BME280;44432;49.786;22.760;2023-05-09T04:03:37;100518.13;;;1.05;85.60
58662;BME280;44432;49.786;22.760;2023-05-09T04:06:08;100518.05;;;1.09;85.63
58662;BME280;44432;49.786;22.760;2023-05-09T04:08:38;100517.80;;;1.10;85.39
58662;BME280;44432;49.786;22.760;2023-05-09T04:11:09;100520.79;;;1.14;85.75
58662;BME280;44432;49.786;22.760;2023-05-09T04:13:39;100518.93;;;1.17;85.65
58662;BME280;44432;49.786;22.760;2023-05-09T04:16:10;100518.00;;;1.22;85.60
58662;BME280;44432;49.786;22.760;2023-05-09T04:18:40;100519.64;;;1.30;85.99
58662;BME280;44432;49.786;22.760;2023-05-09T04:21:11;100519.59;;;1.37;85.75
58662;BME280;44432;49.786;22.760;2023-05-09T04:23:42;100517.64;;;1.44;85.77
58662;BME280;44432;49.786;22.760;2023-05-09T04:26:12;100517.36;;;1.48;85.56
58662;BME280;44432;49.786;22.760;2023-05-09T04:28:43;100517.38;;;1.52;85.49
58662;BME280;44432;49.786;22.760;2023-05-09T04:31:14;100514.67;;;1.57;85.38
58662;BME280;44432;49.786;22.760;2023-05-09T04:33:45;100521.96;;;1.63;85.37
58662;BME280;44432;49.786;22.760;2023-05-09T04:36:16;100521.98;;;1.68;85.25
58662;BME280;44432;49.786;22.760;2023-05-09T04:38:46;100526.56;;;1.73;85.43
58662;BME280;44432;49.786;22.760;2023-05-09T04:41:17;100525.91;;;1.81;85.61
58662;BME280;44432;49.786;22.760;2023-05-09T04:43:47;100524.67;;;1.87;85.23
58662;BME280;44432;49.786;22.760;2023-05-09T04:46:18;100526.10;;;1.95;85.41
58662;BME280;44432;49.786;22.760;2023-05-09T04:48:49;100526.55;;;2.05;85.60
58662;BME280;44432;49.786;22.760;2023-05-09T04:51:20;100527.17;;;2.13;85.58
58662;BME280;44432;49.786;22.760;2023-05-09T04:53:50;100525.86;;;2.23;85.49
58662;BME280;44432;49.786;22.760;2023-05-09T04:56:21;100528.98;;;2.31;85.54
58662;BME280;44432;49.786;22.760;2023-05-09T04:58:52;100534.60;;;2.39;85.59
58662;BME280;44432;49.786;22.760;2023-05-09T05:01:22;100532.96;;;2.48;85.47
58662;BME280;44432;49.786;22.760;2023-05-09T05:03:53;100534.79;;;2.55;85.08
58662;BME280;44432;49.786;22.760;2023-05-09T05:06:24;100533.34;;;2.62;85.29
58662;BME280;44432;49.786;22.760;2023-05-09T05:08:54;100533.78;;;2.69;85.27
58662;BME280;44432;49.786;22.760;2023-05-09T05:11:25;100534.08;;;2.77;85.18
58662;BME280;44432;49.786;22.760;2023-05-09T05:13:55;100532.63;;;2.86;85.55
58662;BME280;44432;49.786;22.760;2023-05-09T05:16:26;100529.54;;;2.96;85.53
58662;BME280;44432;49.786;22.760;2023-05-09T05:18:57;100530.48;;;3.05;85.67
58662;BME280;44432;49.786;22.760;2023-05-09T05:21:27;100530.17;;;3.16;85.31
58662;BME280;44432;49.786;22.760;2023-05-09T05:23:58;100528.52;;;3.26;85.63
58662;BME280;44432;49.786;22.760;2023-05-09T05:26:28;100526.69;;;3.39;85.54
58662;BME280;44432;49.786;22.760;2023-05-09T05:28:59;100528.30;;;3.53;85.73
58662;BME280;44432;49.786;22.760;2023-05-09T05:31:29;100523.52;;;3.67;85.63
58662;BME280;44432;49.786;22.760;2023-05-09T05:34:00;100520.74;;;3.82;85.78
58662;BME280;44432;49.786;22.760;2023-05-09T05:36:31;100521.90;;;3.98;85.77
58662;BME280;44432;49.786;22.760;2023-05-09T05:39:01;100523.20;;;4.15;85.83
58662;BME280;44432;49.786;22.760;2023-05-09T05:41:32;100524.64;;;4.31;85.92
58662;BME280;44432;49.786;22.760;2023-05-09T05:44:03;100520.89;;;4.48;85.82
58662;BME280;44432;49.786;22.760;2023-05-09T05:46:34;100514.61;;;4.65;85.76
58662;BME280;44432;49.786;22.760;2023-05-09T05:49:04;100511.61;;;4.84;85.77
58662;BME280;44432;49.786;22.760;2023-05-09T05:51:35;100508.02;;;5.03;85.54
58662;BME280;44432;49.786;22.760;2023-05-09T05:54:05;100504.39;;;5.22;85.47
58662;BME280;44432;49.786;22.760;2023-05-09T05:56:36;100504.44;;;5.44;84.89
58662;BME280;44432;49.786;22.760;2023-05-09T05:59:06;100500.59;;;5.63;84.34
58662;BME280;44432;49.786;22.760;2023-05-09T06:01:37;100501.02;;;5.83;83.89
58662;BME280;44432;49.786;22.760;2023-05-09T06:04:08;100503.77;;;6.04;83.22
58662;BME280;44432;49.786;22.760;2023-05-09T06:06:38;100498.61;;;6.25;82.60
58662;BME280;44432;49.786;22.760;2023-05-09T06:09:09;100501.24;;;6.45;81.93
58662;BME280;44432;49.786;22.760;2023-05-09T06:11:40;100500.52;;;6.65;81.37
58662;BME280;44432;49.786;22.760;2023-05-09T06:14:10;100499.28;;;6.83;81.08
58662;BME280;44432;49.786;22.760;2023-05-09T06:16:41;100494.55;;;7.02;80.18
58662;BME280;44432;49.786;22.760;2023-05-09T06:19:12;100492.70;;;7.19;79.54
58662;BME280;44432;49.786;22.760;2023-05-09T06:21:43;100490.17;;;7.33;78.95
58662;BME280;44432;49.786;22.760;2023-05-09T06:24:13;100490.23;;;7.46;78.44
58662;BME280;44432;49.786;22.760;2023-05-09T06:26:44;100491.81;;;7.57;78.37
58662;BME280;44432;49.786;22.760;2023-05-09T06:29:14;100487.52;;;7.70;77.59
58662;BME280;44432;49.786;22.760;2023-05-09T06:31:45;100491.98;;;7.81;77.39
58662;BME280;44432;49.786;22.760;2023-05-09T06:34:16;100487.52;;;7.94;76.87
58662;BME280;44432;49.786;22.760;2023-05-09T06:36:46;100488.02;;;8.05;76.34
58662;BME280;44432;49.786;22.760;2023-05-09T06:39:17;100486.47;;;8.14;76.10
58662;BME280;44432;49.786;22.760;2023-05-09T06:41:47;100482.27;;;8.26;76.09
58662;BME280;44432;49.786;22.760;2023-05-09T06:44:18;100482.54;;;8.37;75.47
58662;BME280;44432;49.786;22.760;2023-05-09T06:46:48;100476.98;;;8.49;74.72
58662;BME280;44432;49.786;22.760;2023-05-09T06:49:19;100473.86;;;8.64;74.25
58662;BME280;44432;49.786;22.760;2023-05-09T06:51:50;100474.02;;;8.76;73.73
58662;BME280;44432;49.786;22.760;2023-05-09T06:54:20;100475.38;;;8.89;73.49
58662;BME280;44432;49.786;22.760;2023-05-09T06:56:51;100476.16;;;9.02;72.79
58662;BME280;44432;49.786;22.760;2023-05-09T06:59:22;100475.92;;;9.13;72.40
58662;BME280;44432;49.786;22.760;2023-05-09T07:01:52;100473.69;;;9.26;72.50
58662;BME280;44432;49.786;22.760;2023-05-09T07:04:24;100468.33;;;9.37;71.88
58662;BME280;44432;49.786;22.760;2023-05-09T07:06:54;100464.20;;;9.45;71.64
58662;BME280;44432;49.786;22.760;2023-05-09T07:09:25;100460.09;;;9.54;71.29
58662;BME280;44432;49.786;22.760;2023-05-09T07:11:57;100457.90;;;9.63;71.29
58662;BME280;44432;49.786;22.760;2023-05-09T07:14:29;100459.42;;;9.74;71.04
58662;BME280;44432;49.786;22.760;2023-05-09T07:16:59;100455.20;;;9.86;70.59
58662;BME280;44432;49.786;22.760;2023-05-09T07:19:30;100454.20;;;10.01;70.09
58662;BME280;44432;49.786;22.760;2023-05-09T07:22:00;100450.81;;;10.18;69.41
58662;BME280;44432;49.786;22.760;2023-05-09T07:24:31;100447.73;;;10.33;68.51
58662;BME280;44432;49.786;22.760;2023-05-09T07:27:03;100440.09;;;10.47;67.32
58662;BME280;44432;49.786;22.760;2023-05-09T07:29:34;100435.25;;;10.62;66.71
58662;BME280;44432;49.786;22.760;2023-05-09T07:32:05;100428.70;;;10.78;65.88
58662;BME280;44432;49.786;22.760;2023-05-09T07:34:36;100427.58;;;10.94;64.98
58662;BME280;44432;49.786;22.760;2023-05-09T07:37:06;100428.41;;;11.07;63.90
58662;BME280;44432;49.786;22.760;2023-05-09T07:39:37;100418.67;;;11.22;63.08
58662;BME280;44432;49.786;22.760;2023-05-09T07:42:07;100415.23;;;11.36;61.83
58662;BME280;44432;49.786;22.760;2023-05-09T07:44:38;100417.94;;;11.51;60.67
58662;BME280;44432;49.786;22.760;2023-05-09T07:47:09;100415.95;;;11.61;59.74
58662;BME280;44432;49.786;22.760;2023-05-09T07:49:39;100414.36;;;11.74;59.59
58662;BME280;44432;49.786;22.760;2023-05-09T07:52:11;100414.91;;;11.85;58.63
58662;BME280;44432;49.786;22.760;2023-05-09T07:54:42;100412.70;;;11.95;58.74
58662;BME280;44432;49.786;22.760;2023-05-09T07:57:13;100416.20;;;12.08;57.77
58662;BME280;44432;49.786;22.760;2023-05-09T07:59:44;100414.13;;;12.22;56.93
58662;BME280;44432;49.786;22.760;2023-05-09T08:02:14;100418.44;;;12.36;56.53
58662;BME280;44432;49.786;22.760;2023-05-09T08:04:45;100418.36;;;12.52;55.16
58662;BME280;44432;49.786;22.760;2023-05-09T08:07:17;100409.95;;;12.68;54.67
58662;BME280;44432;49.786;22.760;2023-05-09T08:09:47;100406.46;;;12.85;54.38
58662;BME280;44432;49.786;22.760;2023-05-09T08:12:18;100405.23;;;13.04;53.02
58662;BME280;44432;49.786;22.760;2023-05-09T08:14:49;100408.86;;;13.22;52.09
58662;BME280;44432;49.786;22.760;2023-05-09T08:17:19;100402.42;;;13.36;51.67
58662;BME280;44432;49.786;22.760;2023-05-09T08:19:50;100394.71;;;13.53;51.76
58662;BME280;44432;49.786;22.760;2023-05-09T08:22:20;100387.83;;;13.71;50.26
58662;BME280;44432;49.786;22.760;2023-05-09T08:24:51;100384.96;;;13.83;49.44
58662;BME280;44432;49.786;22.760;2023-05-09T08:27:22;100383.19;;;13.96;48.79
58662;BME280;44432;49.786;22.760;2023-05-09T08:29:52;100377.98;;;14.00;47.96
58662;BME280;44432;49.786;22.760;2023-05-09T08:32:23;100373.58;;;13.99;47.83
58662;BME280;44432;49.786;22.760;2023-05-09T08:34:53;100379.82;;;14.04;47.95
58662;BME280;44432;49.786;22.760;2023-05-09T08:37:24;100377.27;;;14.11;47.70
58662;BME280;44432;49.786;22.760;2023-05-09T08:39:55;100382.67;;;14.19;47.32
58662;BME280;44432;49.786;22.760;2023-05-09T08:42:27;100380.16;;;14.27;46.86
58662;BME280;44432;49.786;22.760;2023-05-09T08:44:59;100380.10;;;14.35;46.51
58662;BME280;44432;49.786;22.760;2023-05-09T08:47:34;100385.98;;;14.53;45.42
58662;BME280;44432;49.786;22.760;2023-05-09T08:50:08;100377.04;;;14.62;44.96
58662;BME280;44432;49.786;22.760;2023-05-09T08:52:40;100378.91;;;14.72;44.69
58662;BME280;44432;49.786;22.760;2023-05-09T08:55:11;100381.79;;;14.80;44.41
58662;BME280;44432;49.786;22.760;2023-05-09T08:57:42;100376.05;;;14.87;44.17
58662;BME280;44432;49.786;22.760;2023-05-09T09:00:16;100370.83;;;14.98;43.84
58662;BME280;44432;49.786;22.760;2023-05-09T09:02:48;100372.42;;;15.04;42.92
58662;BME280;44432;49.786;22.760;2023-05-09T09:05:21;100360.22;;;15.00;42.41
58662;BME280;44432;49.786;22.760;2023-05-09T09:07:53;100362.23;;;14.94;41.74
58662;BME280;44432;49.786;22.760;2023-05-09T09:10:25;100362.33;;;14.82;41.67
58662;BME280;44432;49.786;22.760;2023-05-09T09:13:00;100359.61;;;14.80;41.87
58662;BME280;44432;49.786;22.760;2023-05-09T09:15:35;100358.81;;;14.83;42.06
58662;BME280;44432;49.786;22.760;2023-05-09T09:18:08;100360.80;;;14.85;41.57
58662;BME280;44432;49.786;22.760;2023-05-09T09:20:48;100358.23;;;14.91;41.75
58662;BME280;44432;49.786;22.760;2023-05-09T09:23:20;100346.22;;;15.07;42.08
58662;BME280;44432;49.786;22.760;2023-05-09T09:25:59;100348.61;;;15.17;41.72
58662;BME280;44432;49.786;22.760;2023-05-09T09:28:30;100346.98;;;15.30;41.69
58662;BME280;44432;49.786;22.760;2023-05-09T09:31:01;100346.40;;;15.47;41.36
58662;BME280;44432;49.786;22.760;2023-05-09T09:33:48;100345.95;;;15.65;41.57
58662;BME280;44432;49.786;22.760;2023-05-09T09:36:28;100349.11;;;15.77;40.74
58662;BME280;44432;49.786;22.760;2023-05-09T09:39:02;100348.91;;;15.86;40.42
58662;BME280;44432;49.786;22.760;2023-05-09T09:41:32;100340.56;;;16.07;40.87
58662;BME280;44432;49.786;22.760;2023-05-09T09:44:08;100338.16;;;16.33;40.68
58662;BME280;44432;49.786;22.760;2023-05-09T09:46:43;100333.98;;;16.57;39.85
58662;BME280;44432;49.786;22.760;2023-05-09T09:49:15;100337.86;;;16.68;39.10
58662;BME280;44432;49.786;22.760;2023-05-09T09:51:50;100339.39;;;16.62;38.25
58662;BME280;44432;49.786;22.760;2023-05-09T09:54:21;100332.36;;;16.45;37.83
58662;BME280;44432;49.786;22.760;2023-05-09T09:56:52;100329.45;;;16.32;37.16
58662;BME280;44432;49.786;22.760;2023-05-09T09:59:25;100327.10;;;16.26;37.60
58662;BME280;44432;49.786;22.760;2023-05-09T10:01:58;100320.52;;;16.33;38.20
58662;BME280;44432;49.786;22.760;2023-05-09T10:04:32;100321.92;;;16.49;37.90
58662;BME280;44432;49.786;22.760;2023-05-09T10:07:04;100326.77;;;16.58;36.84
58662;BME280;44432;49.786;22.760;2023-05-09T10:09:36;100319.49;;;16.68;36.43
58662;BME280;44432;49.786;22.760;2023-05-09T10:12:08;100320.10;;;16.62;35.97
58662;BME280;44432;49.786;22.760;2023-05-09T10:14:42;100321.66;;;16.51;35.50
58662;BME280;44432;49.786;22.760;2023-05-09T10:17:14;100312.08;;;16.40;35.53
58662;BME280;44432;49.786;22.760;2023-05-09T10:19:46;100312.80;;;16.35;35.41
58662;BME280;44432;49.786;22.760;2023-05-09T10:22:20;100309.15;;;16.32;35.35
58662;BME280;44432;49.786;22.760;2023-05-09T10:25:00;100301.84;;;16.36;35.51
58662;BME280;44432;49.786;22.760;2023-05-09T10:27:35;100295.70;;;16.41;35.45
58662;BME280;44432;49.786;22.760;2023-05-09T10:30:08;100297.41;;;16.40;35.04
58662;BME280;44432;49.786;22.760;2023-05-09T10:32:52;100298.61;;;16.41;35.00
58662;BME280;44432;49.786;22.760;2023-05-09T10:35:27;100289.66;;;16.43;35.11
58662;BME280;44432;49.786;22.760;2023-05-09T10:38:00;100290.48;;;16.49;35.01
58662;BME280;44432;49.786;22.760;2023-05-09T10:40:31;100292.15;;;16.46;34.27
58662;BME280;44432;49.786;22.760;2023-05-09T10:43:04;100292.20;;;16.48;34.35
58662;BME280;44432;49.786;22.760;2023-05-09T10:45:36;100286.71;;;16.48;33.80
58662;BME280;44432;49.786;22.760;2023-05-09T10:48:08;100292.40;;;16.33;33.40
58662;BME280;44432;49.786;22.760;2023-05-09T10:50:39;100292.48;;;16.19;33.68
58662;BME280;44432;49.786;22.760;2023-05-09T10:53:11;100295.08;;;16.11;33.58
58662;BME280;44432;49.786;22.760;2023-05-09T10:55:50;100291.11;;;16.12;33.78
58662;BME280;44432;49.786;22.760;2023-05-09T10:58:24;100280.14;;;16.18;33.58
58662;BME280;44432;49.786;22.760;2023-05-09T11:00:57;100281.17;;;16.27;33.59
58662;BME280;44432;49.786;22.760;2023-05-09T11:03:51;100284.02;;;16.41;33.29
58662;BME280;44432;49.786;22.760;2023-05-09T11:06:42;100277.90;;;16.47;32.78
58662;BME280;44432;49.786;22.760;2023-05-09T11:09:40;100281.23;;;16.46;32.79
58662;BME280;44432;49.786;22.760;2023-05-09T11:12:11;100280.52;;;16.39;32.56
58662;BME280;44432;49.786;22.760;2023-05-09T11:14:44;100271.09;;;16.30;32.70
58662;BME280;44432;49.786;22.760;2023-05-09T11:17:26;100266.65;;;16.31;33.01
58662;BME280;44432;49.786;22.760;2023-05-09T11:20:02;100259.70;;;16.35;32.53
58662;BME280;44432;49.786;22.760;2023-05-09T11:22:39;100260.10;;;16.40;32.33
58662;BME280;44432;49.786;22.760;2023-05-09T11:25:11;100260.46;;;16.54;32.61
58662;BME280;44432;49.786;22.760;2023-05-09T11:27:45;100255.29;;;16.76;32.63
58662;BME280;44432;49.786;22.760;2023-05-09T11:30:17;100255.00;;;16.97;32.61
58662;BME280;44432;49.786;22.760;2023-05-09T11:32:51;100255.23;;;17.20;32.39
58662;BME280;44432;49.786;22.760;2023-05-09T11:35:24;100254.05;;;17.41;32.27
58662;BME280;44432;49.786;22.760;2023-05-09T11:38:01;100251.48;;;17.55;31.44
58662;BME280;44432;49.786;22.760;2023-05-09T11:40:33;100245.49;;;17.50;30.65
58662;BME280;44432;49.786;22.760;2023-05-09T11:43:05;100245.82;;;17.46;31.15
58662;BME280;44432;49.786;22.760;2023-05-09T11:45:37;100244.09;;;17.52;31.40
58662;BME280;44432;49.786;22.760;2023-05-09T11:48:10;100236.97;;;17.51;30.86
58662;BME280;44432;49.786;22.760;2023-05-09T11:50:40;100235.77;;;17.41;30.88
58662;BME280;44432;49.786;22.760;2023-05-09T11:53:12;100231.81;;;17.26;30.67
58662;BME280;44432;49.786;22.760;2023-05-09T11:55:42;100223.60;;;17.14;30.68
58662;BME280;44432;49.786;22.760;2023-05-09T11:58:13;100221.60;;;17.11;30.61
58662;BME280;44432;49.786;22.760;2023-05-09T12:00:46;100223.21;;;17.13;30.66
58662;BME280;44432;49.786;22.760;2023-05-09T12:03:16;100221.25;;;17.17;30.77
58662;BME280;44432;49.786;22.760;2023-05-09T12:05:48;100220.88;;;17.17;30.42
58662;BME280;44432;49.786;22.760;2023-05-09T12:08:19;100216.76;;;17.16;30.33
58662;BME280;44432;49.786;22.760;2023-05-09T12:10:51;100212.89;;;17.10;30.07
58662;BME280;44432;49.786;22.760;2023-05-09T12:13:21;100205.36;;;17.08;30.60
58662;BME280;44432;49.786;22.760;2023-05-09T12:15:52;100204.55;;;17.10;30.74
58662;BME280;44432;49.786;22.760;2023-05-09T12:18:29;100207.17;;;17.08;30.57
58662;BME280;44432;49.786;22.760;2023-05-09T12:20:59;100202.79;;;17.10;30.72
58662;BME280;44432;49.786;22.760;2023-05-09T12:23:35;100206.64;;;17.08;30.50
58662;BME280;44432;49.786;22.760;2023-05-09T12:26:05;100196.57;;;16.99;30.89
58662;BME280;44432;49.786;22.760;2023-05-09T12:28:36;100198.91;;;16.96;30.94
58662;BME280;44432;49.786;22.760;2023-05-09T12:31:07;100190.33;;;16.94;30.38
58662;BME280;44432;49.786;22.760;2023-05-09T12:33:39;100189.89;;;16.96;30.69
58662;BME280;44432;49.786;22.760;2023-05-09T12:36:11;100183.35;;;17.09;30.83
58662;BME280;44432;49.786;22.760;2023-05-09T12:38:53;100180.73;;;17.22;30.67
58662;BME280;44432;49.786;22.760;2023-05-09T12:41:24;100168.71;;;17.30;30.57
58662;BME280;44432;49.786;22.760;2023-05-09T12:43:57;100171.70;;;17.35;29.70
58662;BME280;44432;49.786;22.760;2023-05-09T12:46:28;100165.36;;;17.31;29.58
58662;BME280;44432;49.786;22.760;2023-05-09T12:48:58;100171.61;;;17.30;29.45
58662;BME280;44432;49.786;22.760;2023-05-09T12:51:30;100168.44;;;17.22;29.16
58662;BME280;44432;49.786;22.760;2023-05-09T12:54:04;100164.55;;;17.15;29.30
58662;BME280;44432;49.786;22.760;2023-05-09T12:56:39;100171.55;;;17.16;29.62
58662;BME280;44432;49.786;22.760;2023-05-09T12:59:12;100167.96;;;17.15;29.98
58662;BME280;44432;49.786;22.760;2023-05-09T13:01:43;100165.08;;;17.20;30.27
58662;BME280;44432;49.786;22.760;2023-05-09T13:04:14;100163.66;;;17.21;30.06
58662;BME280;44432;49.786;22.760;2023-05-09T13:06:49;100153.48;;;17.19;30.00
58662;BME280;44432;49.786;22.760;2023-05-09T13:09:20;100153.04;;;17.18;30.26
58662;BME280;44432;49.786;22.760;2023-05-09T13:11:51;100147.88;;;17.26;30.50